createdAt,value
2019-03-03T00:01:11.747Z,9.60
2019-03-03T00:03:42.755Z,9.60
2019-03-03T00:06:13.508Z,9.60
2019-03-03T00:08:44.315Z,9.70
2019-03-03T00:11:15.102Z,9.70
2019-03-03T00:13:45.877Z,9.60
2019-03-03T00:16:16.923Z,9.70
2019-03-03T00:18:47.695Z,9.70
2019-03-03T00:21:18.808Z,9.60
2019-03-03T00:23:49.582Z,9.60
2019-03-03T00:26:20.342Z,9.60
2019-03-03T00:28:51.414Z,9.50
2019-03-03T00:31:25.274Z,9.50
2019-03-03T00:33:56.053Z,9.50
2019-03-03T00:36:28.753Z,9.50
2019-03-03T00:39:16.508Z,9.50
2019-03-03T00:41:58.693Z,9.50
2019-03-03T00:44:31.114Z,9.40
2019-03-03T00:47:03.829Z,9.40
2019-03-03T00:49:39.069Z,9.30
2019-03-03T00:52:17.722Z,9.30
2019-03-03T00:54:59.500Z,9.20
2019-03-03T00:57:48.418Z,9.20
2019-03-03T01:00:24.587Z,9.10
2019-03-03T01:02:57.261Z,9.00
2019-03-03T01:05:32.802Z,9.00
2019-03-03T01:08:08.078Z,9.00
2019-03-03T01:10:53.158Z,8.90
2019-03-03T01:13:40.793Z,8.90
2019-03-03T01:16:16.118Z,8.90
2019-03-03T01:18:48.509Z,8.90
2019-03-03T01:21:26.901Z,8.90
2019-03-03T01:24:08.010Z,8.80
2019-03-03T01:26:38.794Z,8.80
2019-03-03T01:29:09.594Z,8.80
2019-03-03T01:31:40.377Z,8.80
2019-03-03T01:34:11.523Z,8.70
2019-03-03T01:36:42.290Z,8.70
2019-03-03T01:39:13.929Z,8.70
2019-03-03T01:41:44.693Z,8.70
2019-03-03T01:44:15.477Z,8.70
2019-03-03T01:46:46.301Z,8.70
2019-03-03T01:49:17.090Z,8.70
2019-03-03T01:51:47.878Z,8.60
2019-03-03T01:54:18.665Z,8.60
2019-03-03T01:56:49.427Z,8.60
2019-03-03T01:59:20.506Z,8.60
2019-03-03T02:01:51.550Z,8.60
2019-03-03T02:04:22.338Z,8.50
2019-03-03T02:06:53.258Z,8.50
2019-03-03T02:09:24.318Z,8.50
2019-03-03T02:11:55.154Z,8.50
2019-03-03T02:14:25.946Z,8.50
2019-03-03T02:16:56.990Z,8.50
2019-03-03T02:19:27.851Z,8.60
2019-03-03T02:21:58.694Z,8.60
2019-03-03T02:24:29.753Z,8.60
2019-03-03T02:27:00.531Z,8.60
2019-03-03T02:29:31.324Z,8.70
2019-03-03T02:32:02.095Z,8.70
2019-03-03T02:34:33.170Z,8.70
2019-03-03T02:37:04.125Z,8.80
2019-03-03T02:39:34.893Z,8.80
2019-03-03T02:42:05.745Z,8.80
2019-03-03T02:44:36.546Z,8.90
2019-03-03T02:47:07.358Z,8.90
2019-03-03T02:49:38.435Z,8.90
2019-03-03T02:52:09.593Z,8.90
2019-03-03T02:54:40.366Z,8.90
2019-03-03T02:57:11.148Z,9.00
2019-03-03T02:59:42.181Z,9.00
2019-03-03T03:02:15.177Z,9.10
2019-03-03T03:04:45.945Z,9.10
2019-03-03T03:07:24.522Z,9.10
2019-03-03T03:09:57.203Z,9.00
2019-03-03T03:12:32.377Z,9.10
2019-03-03T03:15:05.246Z,9.20
2019-03-03T03:17:40.679Z,9.20
2019-03-03T03:20:19.047Z,9.30
2019-03-03T03:22:51.767Z,9.40
2019-03-03T03:25:30.281Z,9.40
2019-03-03T03:28:14.969Z,9.40
2019-03-03T03:30:50.690Z,9.40
2019-03-03T03:33:26.235Z,9.30
2019-03-03T03:36:01.322Z,9.30
2019-03-03T03:38:36.238Z,9.30
2019-03-03T03:41:14.601Z,9.40
2019-03-03T03:43:55.821Z,9.40
2019-03-03T03:46:28.579Z,9.40
2019-03-03T03:49:12.728Z,9.50
2019-03-03T03:51:50.862Z,9.40
2019-03-03T03:54:39.746Z,9.40
2019-03-03T03:57:12.557Z,9.40
2019-03-03T03:59:45.082Z,9.40
2019-03-03T04:02:20.784Z,9.40
2019-03-03T04:04:53.219Z,9.30
2019-03-03T04:07:28.310Z,9.30
2019-03-03T04:10:06.735Z,9.30
2019-03-03T04:12:41.951Z,9.30
2019-03-03T04:15:30.746Z,9.30
2019-03-03T04:18:06.249Z,9.20
2019-03-03T04:20:56.794Z,9.30
2019-03-03T04:23:29.190Z,9.40
2019-03-03T04:26:01.615Z,9.30
2019-03-03T04:28:46.256Z,9.40
2019-03-03T04:31:19.021Z,9.40
2019-03-03T04:34:07.710Z,9.40
2019-03-03T04:36:40.448Z,9.40
2019-03-03T04:39:27.906Z,9.40
2019-03-03T04:42:18.155Z,9.40
2019-03-03T04:44:50.827Z,9.40
2019-03-03T04:47:41.534Z,9.40
2019-03-03T04:50:20.442Z,9.50
2019-03-03T04:52:55.881Z,9.50
2019-03-03T04:55:33.921Z,9.50
2019-03-03T04:58:06.354Z,9.50
2019-03-03T05:00:39.052Z,9.50
2019-03-03T05:03:29.790Z,9.50
2019-03-03T05:06:11.166Z,9.60
2019-03-03T05:08:43.578Z,9.50
2019-03-03T05:11:35.370Z,9.60
2019-03-03T05:14:07.782Z,9.60
2019-03-03T05:16:40.234Z,9.60
2019-03-03T05:19:11.071Z,9.50
2019-03-03T05:21:41.871Z,9.50
2019-03-03T05:24:12.671Z,9.60
2019-03-03T05:26:43.437Z,9.60
2019-03-03T05:29:14.241Z,9.60
2019-03-03T05:31:45.011Z,9.60
2019-03-03T05:34:15.802Z,9.60
2019-03-03T05:36:46.869Z,9.60
2019-03-03T05:39:17.661Z,9.70
2019-03-03T05:41:48.433Z,9.70
2019-03-03T05:44:19.230Z,9.70
2019-03-03T05:46:50.353Z,9.70
2019-03-03T05:49:21.375Z,9.70
2019-03-03T05:51:52.265Z,9.70
2019-03-03T05:54:23.363Z,9.70
2019-03-03T05:56:54.417Z,9.70
2019-03-03T05:59:25.231Z,9.70
2019-03-03T06:01:56.005Z,9.70
2019-03-03T06:04:27.035Z,9.70
2019-03-03T06:06:57.827Z,9.70
2019-03-03T06:09:28.906Z,9.70
2019-03-03T06:11:59.762Z,9.70
2019-03-03T06:14:30.550Z,9.70
2019-03-03T06:17:01.331Z,9.70
2019-03-03T06:19:32.471Z,9.70
2019-03-03T06:22:03.282Z,9.80
2019-03-03T06:24:34.354Z,9.80
2019-03-03T06:27:05.150Z,9.80
2019-03-03T06:29:35.949Z,9.80
2019-03-03T06:32:06.740Z,9.80
2019-03-03T06:34:37.837Z,9.80
2019-03-03T06:37:08.959Z,9.80
2019-03-03T06:39:39.722Z,9.80
2019-03-03T06:42:10.535Z,9.80
2019-03-03T06:44:41.309Z,9.80
2019-03-03T06:47:12.429Z,9.80
2019-03-03T06:49:43.195Z,9.80
2019-03-03T06:52:14.000Z,9.90
2019-03-03T06:54:45.037Z,9.90
2019-03-03T06:57:15.821Z,10.00
2019-03-03T06:59:46.593Z,10.00
2019-03-03T07:02:17.373Z,10.00
2019-03-03T07:04:48.152Z,10.10
2019-03-03T07:07:19.241Z,10.10
2019-03-03T07:09:50.278Z,10.10
2019-03-03T07:12:21.098Z,10.20
2019-03-03T07:14:51.859Z,10.30
2019-03-03T07:17:22.998Z,10.40
2019-03-03T07:19:54.045Z,10.40
2019-03-03T07:22:24.836Z,10.50
2019-03-03T07:24:55.658Z,10.50
2019-03-03T07:27:26.767Z,10.50
2019-03-03T07:29:57.570Z,10.60
2019-03-03T07:32:28.399Z,10.60
2019-03-03T07:34:59.493Z,10.60
2019-03-03T07:37:30.310Z,10.70
2019-03-03T07:40:01.112Z,10.70
2019-03-03T07:42:31.890Z,10.80
2019-03-03T07:45:04.610Z,10.80
2019-03-03T07:47:35.506Z,10.90
2019-03-03T07:50:06.966Z,10.90
2019-03-03T07:52:37.772Z,10.90
2019-03-03T07:55:10.005Z,10.90
2019-03-03T07:57:41.026Z,10.90
2019-03-03T08:00:13.295Z,11.00
2019-03-03T08:02:44.082Z,10.90
2019-03-03T08:05:15.188Z,11.00
2019-03-03T08:07:46.244Z,11.00
2019-03-03T08:10:17.012Z,11.00
2019-03-03T08:12:47.813Z,11.00
2019-03-03T08:15:18.814Z,11.00
2019-03-03T08:17:49.630Z,11.00
2019-03-03T08:20:20.437Z,11.10
2019-03-03T08:22:51.205Z,11.10
2019-03-03T08:25:22.018Z,11.20
2019-03-03T08:27:52.818Z,11.20
2019-03-03T08:30:23.881Z,11.20
2019-03-03T08:32:56.575Z,11.30
2019-03-03T08:35:29.409Z,11.30
2019-03-03T08:38:00.237Z,11.40
2019-03-03T08:40:31.336Z,11.40
2019-03-03T08:43:18.698Z,11.40
2019-03-03T08:46:07.611Z,11.40
2019-03-03T08:48:40.961Z,11.40
2019-03-03T08:51:16.543Z,11.40
2019-03-03T08:53:51.618Z,11.40
2019-03-03T08:56:39.419Z,11.40
2019-03-03T08:59:11.828Z,11.50
2019-03-03T09:01:53.253Z,11.60
2019-03-03T09:04:34.393Z,11.60
2019-03-03T09:07:06.817Z,11.60
2019-03-03T09:09:57.711Z,11.60
2019-03-03T09:12:36.231Z,11.60
2019-03-03T09:15:11.290Z,11.60
2019-03-03T09:18:00.233Z,11.50
2019-03-03T09:20:38.907Z,11.60
2019-03-03T09:23:11.314Z,11.60
2019-03-03T09:25:52.514Z,11.60
2019-03-03T09:28:30.746Z,11.60
2019-03-03T09:31:06.134Z,11.60
2019-03-03T09:33:41.254Z,11.60
2019-03-03T09:36:29.979Z,11.70
2019-03-03T09:39:19.161Z,11.70
2019-03-03T09:41:54.375Z,11.70
2019-03-03T09:44:29.255Z,11.70
2019-03-03T09:47:07.306Z,11.80
2019-03-03T09:49:56.602Z,11.70
2019-03-03T09:52:29.284Z,11.80
2019-03-03T09:55:10.184Z,11.80
2019-03-03T09:57:42.618Z,11.90
2019-03-03T10:00:15.379Z,11.90
2019-03-03T10:02:54.050Z,12.00
2019-03-03T10:05:26.481Z,12.00
2019-03-03T10:07:58.979Z,12.10
2019-03-03T10:10:31.375Z,12.10
2019-03-03T10:13:06.517Z,12.10
2019-03-03T10:15:41.646Z,12.10
2019-03-03T10:18:20.035Z,12.20
2019-03-03T10:21:10.566Z,12.20
2019-03-03T10:23:46.277Z,12.30
2019-03-03T10:26:27.986Z,12.30
2019-03-03T10:29:06.322Z,12.40
2019-03-03T10:31:41.876Z,12.40
2019-03-03T10:34:23.918Z,12.40
2019-03-03T10:37:02.465Z,12.30
2019-03-03T10:39:41.073Z,12.30
2019-03-03T10:42:19.307Z,12.30
2019-03-03T10:44:57.873Z,12.30
2019-03-03T10:47:35.958Z,12.30
2019-03-03T10:50:28.832Z,12.30
2019-03-03T10:53:07.076Z,12.30
2019-03-03T10:55:54.770Z,12.30
2019-03-03T10:58:43.461Z,12.30
2019-03-03T11:01:15.947Z,12.30
2019-03-03T11:03:51.318Z,12.30
2019-03-03T11:06:36.187Z,12.30
2019-03-03T11:09:10.311Z,12.30
2019-03-03T11:11:45.652Z,12.30
2019-03-03T11:14:27.583Z,12.30
2019-03-03T11:17:02.702Z,12.30
2019-03-03T11:19:37.671Z,12.30
2019-03-03T11:22:18.905Z,12.40
2019-03-03T11:25:00.463Z,12.30
2019-03-03T11:27:35.829Z,12.30
2019-03-03T11:30:11.364Z,12.40
2019-03-03T11:32:56.134Z,12.40
2019-03-03T11:35:31.668Z,12.40
2019-03-03T11:38:13.246Z,12.50
2019-03-03T11:41:11.820Z,12.50
2019-03-03T11:43:50.126Z,12.50
2019-03-03T11:46:22.544Z,12.50
2019-03-03T11:48:55.294Z,12.60
2019-03-03T11:51:36.726Z,12.60
2019-03-03T11:54:11.898Z,12.60
2019-03-03T11:56:50.508Z,12.60
2019-03-03T11:59:35.367Z,12.60
2019-03-03T12:02:26.684Z,12.60
2019-03-03T12:05:05.203Z,12.50
2019-03-03T12:07:46.887Z,12.50
2019-03-03T12:10:19.303Z,12.50
2019-03-03T12:12:52.027Z,12.50
2019-03-03T12:15:29.965Z,12.50
2019-03-03T12:18:14.349Z,12.60
2019-03-03T12:20:49.851Z,12.70
2019-03-03T12:23:22.214Z,12.70
2019-03-03T12:26:13.096Z,12.80
2019-03-03T12:28:48.051Z,12.90
2019-03-03T12:31:36.792Z,13.10
2019-03-03T12:34:09.251Z,13.20
2019-03-03T12:36:50.510Z,13.30
2019-03-03T12:39:28.589Z,13.40
2019-03-03T12:42:13.287Z,13.40
2019-03-03T12:44:48.649Z,13.40
2019-03-03T12:47:24.058Z,13.40
2019-03-03T12:50:05.359Z,13.30
2019-03-03T12:52:40.493Z,13.30
2019-03-03T12:55:12.894Z,13.30
2019-03-03T12:57:48.097Z,13.30
2019-03-03T13:00:39.198Z,13.30
2019-03-03T13:03:27.710Z,13.30
2019-03-03T13:06:09.121Z,13.20
2019-03-03T13:08:44.285Z,13.20
2019-03-03T13:11:19.769Z,13.20
2019-03-03T13:14:04.358Z,13.10
2019-03-03T13:16:46.042Z,13.20
2019-03-03T13:19:27.248Z,13.20
2019-03-03T13:22:16.615Z,13.10
2019-03-03T13:24:49.005Z,13.10
2019-03-03T13:27:36.810Z,13.10
2019-03-03T13:30:15.298Z,13.10
2019-03-03T13:32:47.723Z,13.10
2019-03-03T13:35:25.886Z,13.10
2019-03-03T13:38:01.344Z,13.10
2019-03-03T13:40:51.863Z,13.10
2019-03-03T13:43:22.638Z,13.10
2019-03-03T13:45:53.478Z,13.10
2019-03-03T13:48:24.262Z,13.10
2019-03-03T13:50:55.042Z,13.00
2019-03-03T13:53:25.799Z,13.00
2019-03-03T13:55:56.666Z,13.00
2019-03-03T13:58:27.573Z,12.90
2019-03-03T14:00:58.930Z,12.90
2019-03-03T14:03:29.687Z,12.90
2019-03-03T14:06:00.490Z,12.90
2019-03-03T14:08:31.423Z,12.90
2019-03-03T14:11:02.245Z,12.90
2019-03-03T14:13:33.035Z,12.90
2019-03-03T14:16:04.481Z,12.90
2019-03-03T14:18:35.263Z,12.90
2019-03-03T14:21:06.265Z,12.80
2019-03-03T14:23:37.054Z,12.80
2019-03-03T14:26:07.867Z,12.80
2019-03-03T14:28:38.667Z,12.70
2019-03-03T14:31:09.822Z,12.80
2019-03-03T14:33:40.602Z,12.80
2019-03-03T14:36:11.361Z,12.80
2019-03-03T14:38:42.211Z,12.80
2019-03-03T14:41:13.066Z,12.80
2019-03-03T14:43:43.857Z,12.80
2019-03-03T14:46:14.618Z,12.90
2019-03-03T14:48:45.428Z,12.80
2019-03-03T14:51:16.434Z,12.90
2019-03-03T14:53:47.202Z,12.90
2019-03-03T14:56:17.978Z,12.90
2019-03-03T14:58:48.736Z,12.90
2019-03-03T15:01:19.522Z,12.90
2019-03-03T15:03:50.285Z,12.80
2019-03-03T15:06:24.350Z,12.80
2019-03-03T15:08:54.153Z,12.90
2019-03-03T15:11:25.286Z,12.80
2019-03-03T15:13:56.543Z,12.80
2019-03-03T15:16:27.586Z,12.80
2019-03-03T15:18:58.363Z,12.70
2019-03-03T15:21:29.155Z,12.80
2019-03-03T15:23:59.934Z,12.80
2019-03-03T15:26:30.749Z,12.80
2019-03-03T15:29:01.890Z,12.80
2019-03-03T15:31:37.715Z,12.70
2019-03-03T15:34:05.610Z,12.70
2019-03-03T15:36:36.655Z,12.70
2019-03-03T15:39:09.161Z,12.70
2019-03-03T15:41:40.010Z,12.70
2019-03-03T15:44:11.118Z,12.80
2019-03-03T15:46:41.881Z,12.80
2019-03-03T15:49:12.999Z,12.80
2019-03-03T15:51:44.057Z,12.80
2019-03-03T15:54:15.023Z,12.70
2019-03-03T15:56:46.034Z,12.70
2019-03-03T15:59:16.847Z,12.70
2019-03-03T16:01:47.642Z,12.70
2019-03-03T16:04:18.408Z,12.70
2019-03-03T16:06:49.194Z,12.70
2019-03-03T16:09:19.982Z,12.70
2019-03-03T16:11:50.770Z,12.60
2019-03-03T16:14:21.550Z,12.60
2019-03-03T16:16:52.644Z,12.60
2019-03-03T16:19:23.409Z,12.60
2019-03-03T16:21:54.213Z,12.60
2019-03-03T16:24:24.978Z,12.60
2019-03-03T16:26:56.097Z,12.60
2019-03-03T16:29:27.143Z,12.60
2019-03-03T16:31:57.975Z,12.60
2019-03-03T16:34:28.716Z,12.60
2019-03-03T16:36:59.513Z,12.50
2019-03-03T16:39:30.279Z,12.60
2019-03-03T16:42:01.088Z,12.50
2019-03-03T16:44:31.853Z,12.50
2019-03-03T16:47:02.639Z,12.50
2019-03-03T16:49:33.408Z,12.50
2019-03-03T16:52:04.205Z,12.50
2019-03-03T16:54:34.958Z,12.50
2019-03-03T16:57:05.783Z,12.50
2019-03-03T16:59:36.650Z,12.40
2019-03-03T17:02:07.471Z,12.40
2019-03-03T17:04:38.234Z,12.40
2019-03-03T17:07:09.033Z,12.40
2019-03-03T17:09:39.793Z,12.40
2019-03-03T17:12:10.582Z,12.40
2019-03-03T17:14:41.349Z,12.40
2019-03-03T17:17:12.145Z,12.40
2019-03-03T17:19:42.962Z,12.40
2019-03-03T17:22:13.769Z,12.30
2019-03-03T17:24:44.536Z,12.30
2019-03-03T17:27:15.344Z,12.30
2019-03-03T17:29:46.391Z,12.30
2019-03-03T17:32:17.173Z,12.40
2019-03-03T17:34:47.945Z,12.40
2019-03-03T17:37:19.084Z,12.40
2019-03-03T17:39:49.858Z,12.40
2019-03-03T17:42:20.645Z,12.40
2019-03-03T17:44:51.713Z,12.30
2019-03-03T17:47:22.846Z,12.30
2019-03-03T17:49:53.895Z,12.20
2019-03-03T17:52:24.663Z,12.20
2019-03-03T17:54:55.777Z,12.30
2019-03-03T17:57:26.578Z,12.20
2019-03-03T17:59:57.371Z,12.20
2019-03-03T18:02:28.175Z,12.20
2019-03-03T18:04:58.979Z,12.10
2019-03-03T18:07:29.795Z,12.10
2019-03-03T18:10:00.809Z,12.20
2019-03-03T18:12:31.786Z,12.10
2019-03-03T18:15:02.586Z,12.10
2019-03-03T18:17:33.353Z,12.10
2019-03-03T18:20:07.226Z,12.10
2019-03-03T18:22:38.678Z,12.00
2019-03-03T18:25:11.800Z,12.00
2019-03-03T18:27:42.566Z,12.00
2019-03-03T18:30:27.189Z,12.00
2019-03-03T18:32:58.313Z,11.90
2019-03-03T18:35:29.462Z,11.90
2019-03-03T18:38:00.234Z,11.90
2019-03-03T18:40:31.019Z,11.90
2019-03-03T18:43:02.083Z,11.90
2019-03-03T18:45:33.146Z,11.90
2019-03-03T18:48:04.373Z,12.00
2019-03-03T18:50:35.166Z,12.00
2019-03-03T18:53:06.018Z,12.10
2019-03-03T18:55:37.210Z,12.00
2019-03-03T18:58:08.098Z,12.00
2019-03-03T19:00:39.000Z,12.10
2019-03-03T19:03:10.165Z,12.10
2019-03-03T19:05:41.090Z,12.10
2019-03-03T19:08:12.117Z,12.10
2019-03-03T19:10:42.914Z,12.10
2019-03-03T19:13:13.711Z,12.10
2019-03-03T19:15:44.839Z,12.20
2019-03-03T19:18:15.638Z,12.20
2019-03-03T19:20:46.436Z,12.20
2019-03-03T19:23:17.228Z,12.10
2019-03-03T19:25:48.006Z,12.10
2019-03-03T19:28:18.775Z,12.10
2019-03-03T19:30:49.567Z,12.10
2019-03-03T19:33:26.087Z,12.10
2019-03-03T19:35:56.962Z,12.00
2019-03-03T19:38:29.874Z,12.10
2019-03-03T19:41:00.570Z,12.20
2019-03-03T19:43:31.348Z,12.20
2019-03-03T19:46:08.119Z,12.20
2019-03-03T19:48:39.021Z,12.30
2019-03-03T19:51:10.303Z,12.30
2019-03-03T19:53:41.129Z,12.30
2019-03-03T19:56:11.986Z,12.30
2019-03-03T19:58:42.748Z,12.30
2019-03-03T20:01:13.681Z,12.30
2019-03-03T20:03:44.485Z,12.30
2019-03-03T20:06:15.686Z,12.20
2019-03-03T20:08:46.511Z,12.30
2019-03-03T20:11:19.170Z,12.30
2019-03-03T20:13:50.301Z,12.20
2019-03-03T20:16:21.346Z,12.20
2019-03-03T20:18:52.288Z,12.20
2019-03-03T20:21:23.334Z,12.20
2019-03-03T20:23:54.136Z,12.20
2019-03-03T20:26:24.905Z,12.20
2019-03-03T20:28:55.771Z,12.20
2019-03-03T20:31:26.542Z,12.20
2019-03-03T20:33:58.682Z,12.20
2019-03-03T20:36:29.907Z,12.20
2019-03-03T20:39:00.697Z,12.20
2019-03-03T20:41:31.787Z,12.20
2019-03-03T20:44:02.667Z,12.20
2019-03-03T20:46:33.448Z,12.10
2019-03-03T20:49:04.802Z,12.10
2019-03-03T20:51:35.578Z,12.10
2019-03-03T20:54:06.704Z,12.00
2019-03-03T20:56:37.488Z,12.10
2019-03-03T20:59:08.597Z,12.00
2019-03-03T21:01:39.647Z,12.00
2019-03-03T21:04:10.438Z,12.00
2019-03-03T21:06:41.207Z,12.00
2019-03-03T21:09:12.089Z,12.00
2019-03-03T21:11:42.852Z,11.90
2019-03-03T21:14:13.650Z,11.90
2019-03-03T21:16:44.423Z,11.90
2019-03-03T21:19:15.194Z,11.90
2019-03-03T21:21:46.239Z,11.90
2019-03-03T21:24:17.034Z,11.90
2019-03-03T21:26:48.119Z,11.90
2019-03-03T21:29:18.953Z,11.80
2019-03-03T21:31:50.227Z,11.80
2019-03-03T21:34:21.358Z,11.80
2019-03-03T21:36:52.146Z,11.80
2019-03-03T21:39:23.241Z,11.80
2019-03-03T21:41:54.399Z,11.80
2019-03-03T21:44:25.169Z,11.80
2019-03-03T21:46:55.973Z,11.80
2019-03-03T21:49:27.005Z,11.80
2019-03-03T21:51:57.797Z,11.80
2019-03-03T21:54:30.071Z,11.80
2019-03-03T21:57:00.875Z,11.80
2019-03-03T21:59:31.642Z,11.80
2019-03-03T22:02:02.739Z,11.80
2019-03-03T22:04:33.782Z,11.80
2019-03-03T22:07:04.557Z,11.90
2019-03-03T22:09:35.318Z,11.80
2019-03-03T22:12:06.110Z,11.90
2019-03-03T22:14:37.258Z,11.90
2019-03-03T22:17:08.402Z,11.90
2019-03-03T22:19:39.223Z,11.90
2019-03-03T22:22:10.048Z,12.00
2019-03-03T22:24:40.838Z,12.00
2019-03-03T22:27:11.632Z,12.00
2019-03-03T22:29:42.799Z,11.90
2019-03-03T22:32:13.839Z,12.00
2019-03-03T22:34:44.882Z,12.00
2019-03-03T22:37:15.946Z,12.00
2019-03-03T22:39:46.690Z,12.00
2019-03-03T22:42:17.806Z,12.10
2019-03-03T22:44:48.583Z,12.10
2019-03-03T22:47:19.854Z,12.10
2019-03-03T22:49:50.933Z,12.10
2019-03-03T22:52:21.993Z,12.10
2019-03-03T22:54:53.038Z,12.10
2019-03-03T22:57:23.827Z,12.20
2019-03-03T22:59:54.603Z,12.20
2019-03-03T23:02:25.646Z,12.10
2019-03-03T23:05:08.338Z,12.20
2019-03-03T23:07:47.825Z,12.10
2019-03-03T23:10:24.266Z,12.10
2019-03-03T23:13:18.973Z,12.10
2019-03-03T23:16:04.667Z,12.10
2019-03-03T23:18:47.121Z,12.10
2019-03-03T23:21:32.681Z,12.10
2019-03-03T23:24:12.566Z,12.10
2019-03-03T23:26:43.337Z,12.00
2019-03-03T23:29:14.130Z,12.00
2019-03-03T23:31:44.879Z,12.10
2019-03-03T23:34:15.670Z,12.00
2019-03-03T23:36:46.742Z,12.10
2019-03-03T23:39:17.787Z,12.10
2019-03-03T23:41:48.553Z,12.10
2019-03-03T23:44:19.691Z,12.20
2019-03-03T23:46:50.710Z,12.30
2019-03-03T23:49:21.489Z,12.30
2019-03-03T23:51:52.245Z,12.30
2019-03-03T23:54:23.337Z,12.30
2019-03-03T23:56:54.101Z,12.40
2019-03-03T23:59:25.220Z,12.40
